sensor_id;sensor_type;location;lat;lon;timestamp;temperature;humidity
80220;DHT22;70247;37.958;23.722;2023-09-19T00:00:30;23.90;49.10
80220;DHT22;70247;37.958;23.722;2023-09-19T00:02:57;23.80;47.80
80220;DHT22;70247;37.958;23.722;2023-09-19T00:05:25;23.80;46.90
80220;DHT22;70247;37.958;23.722;2023-09-19T00:07:53;23.80;49.40
80220;DHT22;70247;37.958;23.722;2023-09-19T00:10:22;23.80;51.10
80220;DHT22;70247;37.958;23.722;2023-09-19T00:12:52;23.80;50.20
80220;DHT22;70247;37.958;23.722;2023-09-19T00:15:23;23.90;50.10
80220;DHT22;70247;37.958;23.722;2023-09-19T00:17:49;23.80;48.10
80220;DHT22;70247;37.958;23.722;2023-09-19T00:20:17;23.70;48.90
80220;DHT22;70247;37.958;23.722;2023-09-19T00:22:43;23.70;49.50
80220;DHT22;70247;37.958;23.722;2023-09-19T00:25:09;23.60;50.80
80220;DHT22;70247;37.958;23.722;2023-09-19T00:27:35;23.50;49.70
80220;DHT22;70247;37.958;23.722;2023-09-19T00:30:06;23.50;49.40
80220;DHT22;70247;37.958;23.722;2023-09-19T00:32:33;23.60;48.50
80220;DHT22;70247;37.958;23.722;2023-09-19T00:34:59;23.70;48.10
80220;DHT22;70247;37.958;23.722;2023-09-19T00:37:25;23.60;48.90
80220;DHT22;70247;37.958;23.722;2023-09-19T00:39:51;23.70;48.50
80220;DHT22;70247;37.958;23.722;2023-09-19T00:42:18;23.80;48.70
80220;DHT22;70247;37.958;23.722;2023-09-19T00:44:44;23.70;49.70
80220;DHT22;70247;37.958;23.722;2023-09-19T00:47:10;23.50;49.10
80220;DHT22;70247;37.958;23.722;2023-09-19T00:49:40;23.60;48.40
80220;DHT22;70247;37.958;23.722;2023-09-19T00:52:07;23.50;48.60
80220;DHT22;70247;37.958;23.722;2023-09-19T00:54:35;23.40;49.50
80220;DHT22;70247;37.958;23.722;2023-09-19T00:57:01;23.50;47.80
80220;DHT22;70247;37.958;23.722;2023-09-19T00:59:27;23.60;48.50
80220;DHT22;70247;37.958;23.722;2023-09-19T01:01:53;23.60;48.90
80220;DHT22;70247;37.958;23.722;2023-09-19T01:04:20;23.80;49.20
80220;DHT22;70247;37.958;23.722;2023-09-19T01:06:45;23.90;47.90
80220;DHT22;70247;37.958;23.722;2023-09-19T01:09:11;23.90;48.20
80220;DHT22;70247;37.958;23.722;2023-09-19T01:11:40;24.00;48.10
80220;DHT22;70247;37.958;23.722;2023-09-19T01:16:42;23.90;47.30
80220;DHT22;70247;37.958;23.722;2023-09-19T01:19:19;24.00;46.10
80220;DHT22;70247;37.958;23.722;2023-09-19T01:21:55;24.00;46.10
80220;DHT22;70247;37.958;23.722;2023-09-19T01:29:34;23.70;45.50
80220;DHT22;70247;37.958;23.722;2023-09-19T01:32:05;23.60;45.70
80220;DHT22;70247;37.958;23.722;2023-09-19T01:34:44;23.60;45.90
80220;DHT22;70247;37.958;23.722;2023-09-19T01:37:11;23.60;45.50
80220;DHT22;70247;37.958;23.722;2023-09-19T01:39:37;23.70;45.00
80220;DHT22;70247;37.958;23.722;2023-09-19T01:42:07;23.70;46.20
80220;DHT22;70247;37.958;23.722;2023-09-19T01:44:47;23.50;45.10
80220;DHT22;70247;37.958;23.722;2023-09-19T01:49:58;23.60;44.70
80220;DHT22;70247;37.958;23.722;2023-09-19T01:52:27;23.80;45.40
80220;DHT22;70247;37.958;23.722;2023-09-19T01:54:55;23.50;46.00
80220;DHT22;70247;37.958;23.722;2023-09-19T01:57:26;23.60;46.30
80220;DHT22;70247;37.958;23.722;2023-09-19T02:00:03;23.70;46.30
80220;DHT22;70247;37.958;23.722;2023-09-19T02:02:35;23.70;46.20
80220;DHT22;70247;37.958;23.722;2023-09-19T02:05:02;23.60;47.00
80220;DHT22;70247;37.958;23.722;2023-09-19T02:07:29;23.40;46.10
80220;DHT22;70247;37.958;23.722;2023-09-19T02:09:59;23.20;47.00
80220;DHT22;70247;37.958;23.722;2023-09-19T02:12:26;23.10;46.40
80220;DHT22;70247;37.958;23.722;2023-09-19T02:14:51;23.10;47.00
80220;DHT22;70247;37.958;23.722;2023-09-19T02:17:17;23.20;46.60
80220;DHT22;70247;37.958;23.722;2023-09-19T02:19:42;23.20;47.20
80220;DHT22;70247;37.958;23.722;2023-09-19T02:22:08;23.20;46.80
80220;DHT22;70247;37.958;23.722;2023-09-19T02:24:36;23.40;46.50
80220;DHT22;70247;37.958;23.722;2023-09-19T02:27:02;23.40;46.80
80220;DHT22;70247;37.958;23.722;2023-09-19T02:29:31;23.30;46.80
80220;DHT22;70247;37.958;23.722;2023-09-19T02:31:57;23.20;47.10
80220;DHT22;70247;37.958;23.722;2023-09-19T02:34:23;23.30;46.70
80220;DHT22;70247;37.958;23.722;2023-09-19T02:36:49;23.30;46.60
80220;DHT22;70247;37.958;23.722;2023-09-19T02:39:14;23.40;47.00
80220;DHT22;70247;37.958;23.722;2023-09-19T02:41:40;23.30;47.00
80220;DHT22;70247;37.958;23.722;2023-09-19T02:44:07;23.20;47.00
80220;DHT22;70247;37.958;23.722;2023-09-19T02:46:33;23.30;46.80
80220;DHT22;70247;37.958;23.722;2023-09-19T02:48:59;23.20;46.90
80220;DHT22;70247;37.958;23.722;2023-09-19T02:51:24;23.20;47.80
80220;DHT22;70247;37.958;23.722;2023-09-19T02:53:50;23.20;47.50
80220;DHT22;70247;37.958;23.722;2023-09-19T02:56:18;23.10;47.50
80220;DHT22;70247;37.958;23.722;2023-09-19T02:58:43;23.00;48.00
80220;DHT22;70247;37.958;23.722;2023-09-19T03:01:09;23.00;47.70
80220;DHT22;70247;37.958;23.722;2023-09-19T03:03:37;23.10;47.90
80220;DHT22;70247;37.958;23.722;2023-09-19T03:06:05;23.10;47.40
80220;DHT22;70247;37.958;23.722;2023-09-19T03:08:31;23.10;47.80
80220;DHT22;70247;37.958;23.722;2023-09-19T03:10:58;23.10;48.50
80220;DHT22;70247;37.958;23.722;2023-09-19T03:13:24;23.10;47.60
80220;DHT22;70247;37.958;23.722;2023-09-19T03:15:49;23.20;47.50
80220;DHT22;70247;37.958;23.722;2023-09-19T03:18:15;23.20;48.10
80220;DHT22;70247;37.958;23.722;2023-09-19T03:20:41;23.20;48.20
80220;DHT22;70247;37.958;23.722;2023-09-19T03:23:07;23.20;47.90
80220;DHT22;70247;37.958;23.722;2023-09-19T03:25:34;23.20;48.50
80220;DHT22;70247;37.958;23.722;2023-09-19T03:28:00;23.10;47.90
80220;DHT22;70247;37.958;23.722;2023-09-19T03:30:26;23.10;49.10
80220;DHT22;70247;37.958;23.722;2023-09-19T03:32:52;23.10;49.20
80220;DHT22;70247;37.958;23.722;2023-09-19T03:35:17;23.20;49.10
80220;DHT22;70247;37.958;23.722;2023-09-19T03:37:43;23.20;49.10
80220;DHT22;70247;37.958;23.722;2023-09-19T03:40:09;23.00;48.80
80220;DHT22;70247;37.958;23.722;2023-09-19T03:42:39;23.10;49.30
80220;DHT22;70247;37.958;23.722;2023-09-19T03:45:05;23.10;48.60
80220;DHT22;70247;37.958;23.722;2023-09-19T03:47:31;23.20;48.80
80220;DHT22;70247;37.958;23.722;2023-09-19T03:49:57;23.00;50.80
80220;DHT22;70247;37.958;23.722;2023-09-19T03:52:22;23.10;49.10
80220;DHT22;70247;37.958;23.722;2023-09-19T03:54:48;23.00;49.60
80220;DHT22;70247;37.958;23.722;2023-09-19T03:57:14;23.00;50.20
80220;DHT22;70247;37.958;23.722;2023-09-19T03:59:42;23.10;49.90
80220;DHT22;70247;37.958;23.722;2023-09-19T04:02:11;23.00;50.40
80220;DHT22;70247;37.958;23.722;2023-09-19T04:04:50;22.80;50.40
80220;DHT22;70247;37.958;23.722;2023-09-19T04:07:16;22.80;51.10
80220;DHT22;70247;37.958;23.722;2023-09-19T04:09:42;22.80;51.10
80220;DHT22;70247;37.958;23.722;2023-09-19T04:12:08;22.90;50.60
80220;DHT22;70247;37.958;23.722;2023-09-19T04:14:36;22.90;50.30
80220;DHT22;70247;37.958;23.722;2023-09-19T04:17:02;22.90;50.50
80220;DHT22;70247;37.958;23.722;2023-09-19T04:19:28;22.90;50.50
80220;DHT22;70247;37.958;23.722;2023-09-19T04:21:54;22.70;50.40
80220;DHT22;70247;37.958;23.722;2023-09-19T04:24:19;22.70;51.20
80220;DHT22;70247;37.958;23.722;2023-09-19T04:26:45;22.80;50.90
80220;DHT22;70247;37.958;23.722;2023-09-19T04:29:11;22.60;50.90
80220;DHT22;70247;37.958;23.722;2023-09-19T04:31:39;22.50;50.70
80220;DHT22;70247;37.958;23.722;2023-09-19T04:34:05;22.50;51.50
80220;DHT22;70247;37.958;23.722;2023-09-19T04:36:31;22.60;50.70
80220;DHT22;70247;37.958;23.722;2023-09-19T04:38:56;22.70;51.40
80220;DHT22;70247;37.958;23.722;2023-09-19T04:41:22;22.80;50.50
80220;DHT22;70247;37.958;23.722;2023-09-19T04:43:48;22.90;49.50
80220;DHT22;70247;37.958;23.722;2023-09-19T04:46:16;22.80;49.50
80220;DHT22;70247;37.958;23.722;2023-09-19T04:48:43;22.60;49.60
80220;DHT22;70247;37.958;23.722;2023-09-19T04:51:08;22.70;50.00
80220;DHT22;70247;37.958;23.722;2023-09-19T04:53:35;22.80;49.70
80220;DHT22;70247;37.958;23.722;2023-09-19T04:56:01;22.90;49.10
80220;DHT22;70247;37.958;23.722;2023-09-19T04:58:30;22.90;49.40
80220;DHT22;70247;37.958;23.722;2023-09-19T05:00:56;23.00;50.10
80220;DHT22;70247;37.958;23.722;2023-09-19T05:03:22;23.00;48.80
80220;DHT22;70247;37.958;23.722;2023-09-19T05:05:48;23.00;49.20
80220;DHT22;70247;37.958;23.722;2023-09-19T05:08:14;22.80;47.60
80220;DHT22;70247;37.958;23.722;2023-09-19T05:10:40;22.90;47.00
80220;DHT22;70247;37.958;23.722;2023-09-19T05:13:06;22.90;48.20
80220;DHT22;70247;37.958;23.722;2023-09-19T05:15:33;23.00;48.50
80220;DHT22;70247;37.958;23.722;2023-09-19T05:17:58;23.00;49.40
80220;DHT22;70247;37.958;23.722;2023-09-19T05:20:24;22.90;49.00
80220;DHT22;70247;37.958;23.722;2023-09-19T05:23:00;22.90;49.30
80220;DHT22;70247;37.958;23.722;2023-09-19T05:25:34;22.80;48.80
80220;DHT22;70247;37.958;23.722;2023-09-19T05:28:02;22.90;49.20
80220;DHT22;70247;37.958;23.722;2023-09-19T05:30:29;22.90;49.80
80220;DHT22;70247;37.958;23.722;2023-09-19T05:32:54;22.90;48.70
80220;DHT22;70247;37.958;23.722;2023-09-19T05:35:21;23.10;49.70
80220;DHT22;70247;37.958;23.722;2023-09-19T05:37:47;23.20;49.20
80220;DHT22;70247;37.958;23.722;2023-09-19T05:40:18;23.40;48.30
80220;DHT22;70247;37.958;23.722;2023-09-19T05:42:44;23.40;48.30
80220;DHT22;70247;37.958;23.722;2023-09-19T05:45:10;23.40;47.70
80220;DHT22;70247;37.958;23.722;2023-09-19T05:47:42;23.50;48.00
80220;DHT22;70247;37.958;23.722;2023-09-19T05:50:09;23.50;47.60
80220;DHT22;70247;37.958;23.722;2023-09-19T05:52:35;23.50;46.70
80220;DHT22;70247;37.958;23.722;2023-09-19T05:55:05;23.60;47.60
80220;DHT22;70247;37.958;23.722;2023-09-19T05:57:32;23.60;46.30
80220;DHT22;70247;37.958;23.722;2023-09-19T05:59:58;23.60;47.50
80220;DHT22;70247;37.958;23.722;2023-09-19T06:02:24;23.60;46.80
80220;DHT22;70247;37.958;23.722;2023-09-19T06:04:50;23.70;46.60
80220;DHT22;70247;37.958;23.722;2023-09-19T06:07:18;23.80;47.00
80220;DHT22;70247;37.958;23.722;2023-09-19T06:09:44;23.80;47.60
80220;DHT22;70247;37.958;23.722;2023-09-19T06:12:09;23.70;46.30
80220;DHT22;70247;37.958;23.722;2023-09-19T06:14:35;23.70;46.30
80220;DHT22;70247;37.958;23.722;2023-09-19T06:17:00;23.70;46.70
80220;DHT22;70247;37.958;23.722;2023-09-19T06:19:26;23.80;46.20
80220;DHT22;70247;37.958;23.722;2023-09-19T06:21:52;24.00;45.00
80220;DHT22;70247;37.958;23.722;2023-09-19T06:24:19;23.80;47.10
80220;DHT22;70247;37.958;23.722;2023-09-19T06:26:45;23.90;47.00
80220;DHT22;70247;37.958;23.722;2023-09-19T06:29:13;23.90;45.70
80220;DHT22;70247;37.958;23.722;2023-09-19T06:31:39;24.00;44.90
80220;DHT22;70247;37.958;23.722;2023-09-19T06:34:05;24.10;44.60
80220;DHT22;70247;37.958;23.722;2023-09-19T06:36:32;24.20;43.80
80220;DHT22;70247;37.958;23.722;2023-09-19T06:38:57;24.40;43.10
80220;DHT22;70247;37.958;23.722;2023-09-19T06:41:24;24.40;42.90
80220;DHT22;70247;37.958;23.722;2023-09-19T06:43:50;24.40;43.70
80220;DHT22;70247;37.958;23.722;2023-09-19T06:46:18;24.40;43.10
80220;DHT22;70247;37.958;23.722;2023-09-19T06:48:44;24.40;43.90
80220;DHT22;70247;37.958;23.722;2023-09-19T06:51:10;24.40;44.70
80220;DHT22;70247;37.958;23.722;2023-09-19T06:53:35;24.30;44.60
80220;DHT22;70247;37.958;23.722;2023-09-19T06:56:02;24.40;44.30
80220;DHT22;70247;37.958;23.722;2023-09-19T06:58:27;24.60;43.80
80220;DHT22;70247;37.958;23.722;2023-09-19T07:00:53;24.80;43.70
80220;DHT22;70247;37.958;23.722;2023-09-19T07:03:19;24.80;43.10
80220;DHT22;70247;37.958;23.722;2023-09-19T07:05:47;24.80;43.00
80220;DHT22;70247;37.958;23.722;2023-09-19T07:08:13;24.80;42.40
80220;DHT22;70247;37.958;23.722;2023-09-19T07:10:39;24.80;41.90
80220;DHT22;70247;37.958;23.722;2023-09-19T07:13:15;24.90;41.50
80220;DHT22;70247;37.958;23.722;2023-09-19T07:15:42;24.90;41.80
80220;DHT22;70247;37.958;23.722;2023-09-19T07:18:12;25.00;42.30
80220;DHT22;70247;37.958;23.722;2023-09-19T07:20:40;25.00;39.60
80220;DHT22;70247;37.958;23.722;2023-09-19T07:23:11;25.00;41.50
80220;DHT22;70247;37.958;23.722;2023-09-19T07:25:39;25.00;41.30
80220;DHT22;70247;37.958;23.722;2023-09-19T07:28:05;25.10;41.50
80220;DHT22;70247;37.958;23.722;2023-09-19T07:30:30;25.20;41.30
80220;DHT22;70247;37.958;23.722;2023-09-19T07:32:56;25.20;41.70
80220;DHT22;70247;37.958;23.722;2023-09-19T07:35:22;25.20;43.10
80220;DHT22;70247;37.958;23.722;2023-09-19T07:37:48;25.40;41.80
80220;DHT22;70247;37.958;23.722;2023-09-19T07:40:21;25.40;41.40
80220;DHT22;70247;37.958;23.722;2023-09-19T07:42:49;25.60;40.80
80220;DHT22;70247;37.958;23.722;2023-09-19T07:45:15;25.50;41.10
80220;DHT22;70247;37.958;23.722;2023-09-19T07:47:45;25.50;40.90
80220;DHT22;70247;37.958;23.722;2023-09-19T07:50:12;25.50;43.20
80220;DHT22;70247;37.958;23.722;2023-09-19T07:52:39;25.20;43.00
80220;DHT22;70247;37.958;23.722;2023-09-19T07:55:05;25.10;43.10
80220;DHT22;70247;37.958;23.722;2023-09-19T07:57:37;25.10;43.60
80220;DHT22;70247;37.958;23.722;2023-09-19T08:00:03;25.10;42.90
80220;DHT22;70247;37.958;23.722;2023-09-19T08:02:41;25.10;43.40
80220;DHT22;70247;37.958;23.722;2023-09-19T08:05:08;25.30;43.50
80220;DHT22;70247;37.958;23.722;2023-09-19T08:07:37;25.40;44.10
80220;DHT22;70247;37.958;23.722;2023-09-19T08:10:03;25.70;42.80
80220;DHT22;70247;37.958;23.722;2023-09-19T08:12:29;25.70;42.70
80220;DHT22;70247;37.958;23.722;2023-09-19T08:14:55;25.90;42.10
80220;DHT22;70247;37.958;23.722;2023-09-19T08:17:21;26.00;41.50
80220;DHT22;70247;37.958;23.722;2023-09-19T08:19:48;26.10;40.50
80220;DHT22;70247;37.958;23.722;2023-09-19T08:22:14;26.20;40.00
80220;DHT22;70247;37.958;23.722;2023-09-19T08:24:42;26.20;40.90
80220;DHT22;70247;37.958;23.722;2023-09-19T08:27:08;26.40;40.90
80220;DHT22;70247;37.958;23.722;2023-09-19T08:29:35;26.50;40.70
80220;DHT22;70247;37.958;23.722;2023-09-19T08:32:01;26.50;40.50
80220;DHT22;70247;37.958;23.722;2023-09-19T08:34:26;26.50;40.20
80220;DHT22;70247;37.958;23.722;2023-09-19T08:36:53;26.40;41.70
80220;DHT22;70247;37.958;23.722;2023-09-19T08:39:22;26.30;41.90
80220;DHT22;70247;37.958;23.722;2023-09-19T08:41:48;26.40;42.30
80220;DHT22;70247;37.958;23.722;2023-09-19T08:44:13;26.40;41.00
80220;DHT22;70247;37.958;23.722;2023-09-19T08:46:40;26.60;40.30
80220;DHT22;70247;37.958;23.722;2023-09-19T08:49:18;26.80;39.90
80220;DHT22;70247;37.958;23.722;2023-09-19T08:51:47;26.90;40.50
80220;DHT22;70247;37.958;23.722;2023-09-19T08:54:21;26.90;40.60
80220;DHT22;70247;37.958;23.722;2023-09-19T08:56:49;26.80;40.90
80220;DHT22;70247;37.958;23.722;2023-09-19T08:59:15;26.90;40.10
80220;DHT22;70247;37.958;23.722;2023-09-19T09:01:42;27.00;38.90
80220;DHT22;70247;37.958;23.722;2023-09-19T09:04:08;27.10;39.90
80220;DHT22;70247;37.958;23.722;2023-09-19T09:06:38;27.50;38.50
80220;DHT22;70247;37.958;23.722;2023-09-19T09:09:05;28.30;37.30
80220;DHT22;70247;37.958;23.722;2023-09-19T09:11:32;29.60;35.40
80220;DHT22;70247;37.958;23.722;2023-09-19T09:13:58;31.20;32.50
80220;DHT22;70247;37.958;23.722;2023-09-19T09:16:24;32.80;30.60
80220;DHT22;70247;37.958;23.722;2023-09-19T09:18:51;34.40;29.20
80220;DHT22;70247;37.958;23.722;2023-09-19T09:21:18;35.80;28.20
80220;DHT22;70247;37.958;23.722;2023-09-19T09:23:43;36.90;27.60
80220;DHT22;70247;37.958;23.722;2023-09-19T09:26:09;38.00;26.60
80220;DHT22;70247;37.958;23.722;2023-09-19T09:28:35;39.00;25.90
80220;DHT22;70247;37.958;23.722;2023-09-19T09:31:02;40.10;24.20
80220;DHT22;70247;37.958;23.722;2023-09-19T09:33:33;39.90;23.80
80220;DHT22;70247;37.958;23.722;2023-09-19T09:35:59;40.50;23.60
80220;DHT22;70247;37.958;23.722;2023-09-19T09:38:27;41.00;23.70
80220;DHT22;70247;37.958;23.722;2023-09-19T09:40:55;41.70;23.70
80220;DHT22;70247;37.958;23.722;2023-09-19T09:43:48;41.40;22.90
80220;DHT22;70247;37.958;23.722;2023-09-19T09:46:17;42.20;23.00
80220;DHT22;70247;37.958;23.722;2023-09-19T09:51:42;42.60;22.20
80220;DHT22;70247;37.958;23.722;2023-09-19T09:54:17;41.90;23.00
80220;DHT22;70247;37.958;23.722;2023-09-19T09:56:52;41.90;22.90
80220;DHT22;70247;37.958;23.722;2023-09-19T09:59:18;42.10;22.10
80220;DHT22;70247;37.958;23.722;2023-09-19T10:01:47;42.40;21.90
80220;DHT22;70247;37.958;23.722;2023-09-19T10:04:28;42.60;21.80
80220;DHT22;70247;37.958;23.722;2023-09-19T10:07:01;41.50;22.20
80220;DHT22;70247;37.958;23.722;2023-09-19T10:09:31;41.40;22.30
80220;DHT22;70247;37.958;23.722;2023-09-19T10:12:09;41.60;22.60
80220;DHT22;70247;37.958;23.722;2023-09-19T10:14:37;41.60;22.60
80220;DHT22;70247;37.958;23.722;2023-09-19T10:17:04;42.10;23.40
80220;DHT22;70247;37.958;23.722;2023-09-19T10:19:39;41.30;22.60
80220;DHT22;70247;37.958;23.722;2023-09-19T10:22:12;41.50;23.00
80220;DHT22;70247;37.958;23.722;2023-09-19T10:24:40;41.90;22.70
80220;DHT22;70247;37.958;23.722;2023-09-19T10:27:06;42.00;22.30
80220;DHT22;70247;37.958;23.722;2023-09-19T10:29:35;42.30;21.60
80220;DHT22;70247;37.958;23.722;2023-09-19T10:32:03;41.70;22.20
80220;DHT22;70247;37.958;23.722;2023-09-19T10:34:34;41.70;22.40
80220;DHT22;70247;37.958;23.722;2023-09-19T10:37:01;41.70;22.90
80220;DHT22;70247;37.958;23.722;2023-09-19T10:39:31;41.50;22.50
80220;DHT22;70247;37.958;23.722;2023-09-19T10:41:57;41.80;22.70
80220;DHT22;70247;37.958;23.722;2023-09-19T10:44:28;41.30;22.20
80220;DHT22;70247;37.958;23.722;2023-09-19T10:46:56;41.50;21.70
80220;DHT22;70247;37.958;23.722;2023-09-19T10:49:22;41.60;23.20
80220;DHT22;70247;37.958;23.722;2023-09-19T10:51:50;41.90;23.50
80220;DHT22;70247;37.958;23.722;2023-09-19T10:54:20;41.80;23.10
80220;DHT22;70247;37.958;23.722;2023-09-19T10:56:49;41.30;23.10
80220;DHT22;70247;37.958;23.722;2023-09-19T10:59:22;41.00;23.10
80220;DHT22;70247;37.958;23.722;2023-09-19T11:01:50;39.80;23.40
80220;DHT22;70247;37.958;23.722;2023-09-19T11:04:23;39.70;23.50
80220;DHT22;70247;37.958;23.722;2023-09-19T11:07:11;39.40;23.50
80220;DHT22;70247;37.958;23.722;2023-09-19T11:09:49;38.10;24.50
80220;DHT22;70247;37.958;23.722;2023-09-19T11:15:06;38.10;24.40
80220;DHT22;70247;37.958;23.722;2023-09-19T11:17:36;37.90;25.10
80220;DHT22;70247;37.958;23.722;2023-09-19T11:30:48;35.40;27.10
80220;DHT22;70247;37.958;23.722;2023-09-19T11:33:21;35.00;26.90
80220;DHT22;70247;37.958;23.722;2023-09-19T11:36:01;33.80;28.60
80220;DHT22;70247;37.958;23.722;2023-09-19T11:43:51;32.40;29.90
80220;DHT22;70247;37.958;23.722;2023-09-19T11:46:17;32.10;30.40
80220;DHT22;70247;37.958;23.722;2023-09-19T11:48:50;32.00;31.10
80220;DHT22;70247;37.958;23.722;2023-09-19T11:51:17;31.20;32.50
80220;DHT22;70247;37.958;23.722;2023-09-19T11:53:52;31.10;32.40
80220;DHT22;70247;37.958;23.722;2023-09-19T11:56:22;31.10;30.70
80220;DHT22;70247;37.958;23.722;2023-09-19T11:58:50;31.10;31.50
80220;DHT22;70247;37.958;23.722;2023-09-19T12:01:23;31.40;33.00
80220;DHT22;70247;37.958;23.722;2023-09-19T12:03:52;31.40;31.90
80220;DHT22;70247;37.958;23.722;2023-09-19T12:06:18;31.40;30.90
80220;DHT22;70247;37.958;23.722;2023-09-19T12:08:43;31.40;31.60
80220;DHT22;70247;37.958;23.722;2023-09-19T12:11:15;31.50;31.10
80220;DHT22;70247;37.958;23.722;2023-09-19T12:13:43;31.70;31.80
80220;DHT22;70247;37.958;23.722;2023-09-19T12:16:13;31.70;32.40
80220;DHT22;70247;37.958;23.722;2023-09-19T12:18:40;31.40;34.00
80220;DHT22;70247;37.958;23.722;2023-09-19T12:21:08;31.20;33.00
80220;DHT22;70247;37.958;23.722;2023-09-19T12:23:57;31.30;31.30
80220;DHT22;70247;37.958;23.722;2023-09-19T12:26:23;31.20;30.80
80220;DHT22;70247;37.958;23.722;2023-09-19T12:28:49;31.30;31.70
80220;DHT22;70247;37.958;23.722;2023-09-19T12:31:18;31.30;30.50
80220;DHT22;70247;37.958;23.722;2023-09-19T12:33:45;31.10;32.90
80220;DHT22;70247;37.958;23.722;2023-09-19T12:36:22;30.90;31.40
80220;DHT22;70247;37.958;23.722;2023-09-19T12:38:55;30.80;31.60
80220;DHT22;70247;37.958;23.722;2023-09-19T12:41:21;30.90;30.50
80220;DHT22;70247;37.958;23.722;2023-09-19T12:43:53;30.80;31.70
80220;DHT22;70247;37.958;23.722;2023-09-19T12:46:22;30.60;32.70
80220;DHT22;70247;37.958;23.722;2023-09-19T12:51:34;30.30;32.20
80220;DHT22;70247;37.958;23.722;2023-09-19T12:54:00;30.20;31.30
80220;DHT22;70247;37.958;23.722;2023-09-19T12:56:27;30.10;32.70
80220;DHT22;70247;37.958;23.722;2023-09-19T12:58:58;30.00;33.10
80220;DHT22;70247;37.958;23.722;2023-09-19T13:01:28;29.80;34.00
80220;DHT22;70247;37.958;23.722;2023-09-19T13:04:27;29.50;34.00
80220;DHT22;70247;37.958;23.722;2023-09-19T13:06:54;29.30;33.70
80220;DHT22;70247;37.958;23.722;2023-09-19T13:09:21;29.30;34.60
80220;DHT22;70247;37.958;23.722;2023-09-19T13:11:47;29.60;35.40
80220;DHT22;70247;37.958;23.722;2023-09-19T13:14:21;29.70;35.00
80220;DHT22;70247;37.958;23.722;2023-09-19T13:17:04;29.90;34.60
80220;DHT22;70247;37.958;23.722;2023-09-19T13:19:43;30.00;32.60
80220;DHT22;70247;37.958;23.722;2023-09-19T13:24:58;30.10;33.70
80220;DHT22;70247;37.958;23.722;2023-09-19T13:27:24;30.00;34.50
80220;DHT22;70247;37.958;23.722;2023-09-19T13:29:49;30.20;32.30
80220;DHT22;70247;37.958;23.722;2023-09-19T13:32:15;30.00;33.20
80220;DHT22;70247;37.958;23.722;2023-09-19T13:34:41;29.70;32.10
80220;DHT22;70247;37.958;23.722;2023-09-19T13:37:06;29.60;34.10
80220;DHT22;70247;37.958;23.722;2023-09-19T13:39:32;29.60;34.90
80220;DHT22;70247;37.958;23.722;2023-09-19T13:41:57;29.60;33.50
80220;DHT22;70247;37.958;23.722;2023-09-19T13:44:24;29.60;34.30
80220;DHT22;70247;37.958;23.722;2023-09-19T13:46:49;29.70;35.00
80220;DHT22;70247;37.958;23.722;2023-09-19T13:49:16;29.90;33.80
80220;DHT22;70247;37.958;23.722;2023-09-19T13:51:43;29.90;32.60
80220;DHT22;70247;37.958;23.722;2023-09-19T13:54:09;29.80;33.80
80220;DHT22;70247;37.958;23.722;2023-09-19T13:56:37;29.80;32.50
80220;DHT22;70247;37.958;23.722;2023-09-19T13:59:02;29.80;33.20
80220;DHT22;70247;37.958;23.722;2023-09-19T14:01:28;29.60;33.30
80220;DHT22;70247;37.958;23.722;2023-09-19T14:03:54;29.50;33.90
80220;DHT22;70247;37.958;23.722;2023-09-19T14:06:22;29.50;33.70
80220;DHT22;70247;37.958;23.722;2023-09-19T14:08:48;29.50;33.40
80220;DHT22;70247;37.958;23.722;2023-09-19T14:11:15;29.30;34.10
80220;DHT22;70247;37.958;23.722;2023-09-19T14:13:41;29.20;33.50
80220;DHT22;70247;37.958;23.722;2023-09-19T14:16:12;29.10;34.10
80220;DHT22;70247;37.958;23.722;2023-09-19T14:18:37;29.00;33.50
80220;DHT22;70247;37.958;23.722;2023-09-19T14:21:03;28.80;33.50
80220;DHT22;70247;37.958;23.722;2023-09-19T14:23:34;28.50;34.20
80220;DHT22;70247;37.958;23.722;2023-09-19T14:26:00;28.50;35.20
80220;DHT22;70247;37.958;23.722;2023-09-19T14:28:26;28.40;34.10
80220;DHT22;70247;37.958;23.722;2023-09-19T14:30:52;28.50;34.60
80220;DHT22;70247;37.958;23.722;2023-09-19T14:33:18;28.50;34.70
80220;DHT22;70247;37.958;23.722;2023-09-19T14:35:43;28.40;34.50
80220;DHT22;70247;37.958;23.722;2023-09-19T14:38:09;28.10;35.30
80220;DHT22;70247;37.958;23.722;2023-09-19T14:40:34;28.00;35.40
80220;DHT22;70247;37.958;23.722;2023-09-19T14:43:01;28.00;35.00
80220;DHT22;70247;37.958;23.722;2023-09-19T14:45:27;28.10;35.80
80220;DHT22;70247;37.958;23.722;2023-09-19T14:47:53;28.10;35.40
80220;DHT22;70247;37.958;23.722;2023-09-19T14:50:21;28.00;35.70
80220;DHT22;70247;37.958;23.722;2023-09-19T14:52:47;28.00;36.00
80220;DHT22;70247;37.958;23.722;2023-09-19T14:55:14;28.00;35.90
80220;DHT22;70247;37.958;23.722;2023-09-19T14:57:41;28.10;36.50
80220;DHT22;70247;37.958;23.722;2023-09-19T15:00:08;28.20;35.70
80220;DHT22;70247;37.958;23.722;2023-09-19T15:02:38;28.30;35.90
80220;DHT22;70247;37.958;23.722;2023-09-19T15:05:06;28.10;35.50
80220;DHT22;70247;37.958;23.722;2023-09-19T15:07:34;28.20;35.90
80220;DHT22;70247;37.958;23.722;2023-09-19T15:10:02;28.30;35.40
80220;DHT22;70247;37.958;23.722;2023-09-19T15:12:28;28.30;35.10
80220;DHT22;70247;37.958;23.722;2023-09-19T15:14:54;28.30;35.20
80220;DHT22;70247;37.958;23.722;2023-09-19T15:17:20;28.30;34.60
80220;DHT22;70247;37.958;23.722;2023-09-19T15:19:46;28.10;35.70
80220;DHT22;70247;37.958;23.722;2023-09-19T15:22:11;27.90;35.60
80220;DHT22;70247;37.958;23.722;2023-09-19T15:24:38;27.90;35.90
80220;DHT22;70247;37.958;23.722;2023-09-19T15:27:03;27.90;35.90
80220;DHT22;70247;37.958;23.722;2023-09-19T15:29:29;28.10;36.20
80220;DHT22;70247;37.958;23.722;2023-09-19T15:31:55;28.10;35.30
80220;DHT22;70247;37.958;23.722;2023-09-19T15:34:24;28.20;35.20
80220;DHT22;70247;37.958;23.722;2023-09-19T15:36:50;28.10;35.10
80220;DHT22;70247;37.958;23.722;2023-09-19T15:39:16;28.00;35.60
80220;DHT22;70247;37.958;23.722;2023-09-19T15:41:44;27.90;36.50
80220;DHT22;70247;37.958;23.722;2023-09-19T15:44:14;28.00;36.10
80220;DHT22;70247;37.958;23.722;2023-09-19T15:46:40;28.00;35.40
80220;DHT22;70247;37.958;23.722;2023-09-19T15:49:06;28.10;35.30
80220;DHT22;70247;37.958;23.722;2023-09-19T15:51:33;28.10;35.20
80220;DHT22;70247;37.958;23.722;2023-09-19T15:53:58;28.00;36.50
80220;DHT22;70247;37.958;23.722;2023-09-19T15:56:25;27.90;36.50